Time;durP1;ratioP1;P1;durP2;ratioP2;P2;SDS_P1;SDS_P2;PMS_P1;PMS_P2;Temp;Humidity;BMP_temperature;BMP_pressure;BME280_temperature;BME280_humidity;BME280_pressure;Samples;Min_cycle;Max_cycle;Signal;HPM_P1;HPM_P2
2023/11/25 00:00:55;;;;;;;;;;;;;;;1.06;93.46;98024.91;131329;1297;22557;-82
2023/11/25 00:03:56;;;;;;;8.30;3.90;;;;;;;1.06;93.58;98022.60;131177;1298;22637;-80
2023/11/25 00:06:56;;;;;;;7.60;3.40;;;;;;;1.06;93.71;98017.36;131113;1291;22663;-80
2023/11/25 00:09:58;;;;;;;8.10;3.60;;;;;;;1.06;93.86;98021.38;131291;1294;22563;-79
2023/11/25 00:12:59;;;;;;;9.70;4.20;;;;;;;1.06;94.03;98030.98;131165;1298;22603;-80
2023/11/25 00:16:00;;;;;;;6.90;3.50;;;;;;;1.03;94.20;98032.54;131026;1297;22774;-80
2023/11/25 00:19:00;;;;;;;5.50;2.70;;;;;;;0.98;94.55;98033.23;131203;1298;22600;-81
2023/11/25 00:22:01;;;;;;;4.40;2.80;;;;;;;0.93;94.64;98034.58;131076;1298;22655;-80
2023/11/25 00:25:01;;;;;;;7.00;2.30;;;;;;;0.89;95.03;98034.43;130997;1297;22558;-81
2023/11/25 00:28:04;;;;;;;4.20;2.70;;;;;;;0.85;95.26;98034.02;130839;1298;23510;-81
2023/11/25 00:31:05;;;;;;;4.50;2.60;;;;;;;0.82;95.17;98037.83;131081;1287;22605;-81
2023/11/25 00:34:06;;;;;;;2.80;2.00;;;;;;;0.80;95.46;98040.63;131033;1297;24313;-81
2023/11/25 00:37:08;;;;;;;2.80;2.50;;;;;;;0.80;95.45;98050.05;131106;1291;22574;-79
2023/11/25 00:40:16;;;;;;;3.00;2.10;;;;;;;0.79;95.57;98054.27;131060;1294;25376;-81
2023/11/25 00:43:17;;;;;;;4.70;2.70;;;;;;;0.74;95.72;98061.38;131026;1291;22584;-80
2023/11/25 00:46:18;;;;;;;3.50;2.60;;;;;;;0.60;95.35;98068.91;131182;1294;22566;-80
2023/11/25 00:49:19;;;;;;;4.30;3.00;;;;;;;0.44;94.88;98076.91;131007;1294;25426;-80
2023/11/25 00:52:20;;;;;;;4.00;2.30;;;;;;;0.29;95.38;98088.84;131056;1297;22725;-80
2023/11/25 00:55:20;;;;;;;3.20;2.60;;;;;;;0.18;95.65;98096.53;131009;1291;23784;-80
2023/11/25 00:58:21;;;;;;;4.80;2.20;;;;;;;0.10;95.91;98097.84;131047;1296;22797;-78
2023/11/25 01:01:22;;;;;;;2.10;1.80;;;;;;;0.06;96.35;98095.80;130869;1294;22596;-79
2023/11/25 01:04:22;;;;;;;;;;;;;;;0.03;96.23;98099.37;131109;1298;24298;-80
2023/11/25 01:07:23;;;;;;;2.30;2.10;;;;;;;-0.00;96.30;98106.13;131173;1298;22720;-83
2023/11/25 01:10:26;;;;;;;3.70;2.20;;;;;;;-0.04;96.44;98108.73;130928;1301;22617;-80
2023/11/25 01:13:28;;;;;;;2.30;1.80;;;;;;;-0.05;96.43;98110.09;131311;1301;22573;-80
2023/11/25 01:16:29;;;;;;;2.60;1.80;;;;;;;-0.06;96.54;98115.20;131450;1297;23479;-80
2023/11/25 01:19:29;;;;;;;2.60;1.90;;;;;;;-0.08;96.51;98114.85;131245;1292;25276;-80
2023/11/25 01:22:30;;;;;;;5.50;2.10;;;;;;;-0.07;96.51;98116.91;131035;1298;22620;-81
2023/11/25 01:25:30;;;;;;;4.00;2.30;;;;;;;-0.08;96.56;98121.63;131162;1297;22596;-80
2023/11/25 01:28:31;;;;;;;4.60;1.90;;;;;;;-0.09;96.58;98117.41;131312;1291;22575;-80
2023/11/25 01:31:31;;;;;;;4.70;1.90;;;;;;;-0.07;96.78;98114.31;131302;1298;22564;-80
2023/11/25 01:34:32;;;;;;;4.50;1.60;;;;;;;-0.08;96.74;98126.84;131306;1292;22632;-79
2023/11/25 01:37:33;;;;;;;4.10;2.00;;;;;;;-0.07;96.81;98122.61;131208;1291;22595;-81
2023/11/25 01:40:33;;;;;;;3.20;1.80;;;;;;;-0.08;97.02;98123.36;130838;1291;22636;-80
2023/11/25 01:43:34;;;;;;;5.00;1.90;;;;;;;-0.07;97.13;98131.64;131189;1301;22578;-79
2023/11/25 01:46:37;;;;;;;4.50;1.90;;;;;;;-0.06;97.47;98140.44;131038;1282;22551;-80
2023/11/25 01:49:38;;;;;;;5.80;2.30;;;;;;;-0.06;97.42;98143.73;131235;1294;22591;-79
2023/11/25 01:52:40;;;;;;;4.90;2.00;;;;;;;-0.07;97.50;98147.15;131064;1299;22621;-79
2023/11/25 01:55:42;;;;;;;3.10;2.30;;;;;;;-0.08;97.53;98148.44;131370;1299;22711;-81
2023/11/25 01:58:42;;;;;;;2.30;2.10;;;;;;;-0.09;97.53;98155.80;131088;1294;22622;-78
2023/11/25 02:01:44;;;;;;;2.60;2.00;;;;;;;-0.08;97.45;98159.01;131009;1294;24234;-80
2023/11/25 02:04:46;;;;;;;4.40;2.40;;;;;;;-0.08;97.47;98165.83;131052;1298;22616;-81
2023/11/25 02:07:46;;;;;;;;;;;;;;;-0.08;97.41;98169.31;131323;1301;22601;-81
2023/11/25 02:10:47;;;;;;;4.40;2.50;;;;;;;-0.08;97.66;98172.96;131207;1292;24427;-80
2023/11/25 02:13:47;;;;;;;6.80;2.70;;;;;;;-0.08;97.60;98175.89;131075;1291;25414;-80
2023/11/25 02:16:49;;;;;;;3.50;2.40;;;;;;;-0.06;97.47;98177.06;131014;1293;182966;-80
2023/11/25 02:19:49;;;;;;;2.80;2.50;;;;;;;-0.06;97.49;98178.10;131476;1298;22569;-80
2023/11/25 02:22:57;;;;;;;7.00;2.80;;;;;;;-0.04;97.36;98187.14;131121;1298;22593;-80
2023/11/25 02:25:57;;;;;;;6.80;3.30;;;;;;;-0.04;97.75;98190.05;131127;1298;22562;-80
2023/11/25 02:28:59;;;;;;;5.00;3.10;;;;;;;-0.04;97.48;98195.45;131041;1282;23821;-82
2023/11/25 02:31:59;;;;;;;8.00;4.10;;;;;;;-0.03;97.54;98201.84;131065;1298;22595;-80
2023/11/25 02:35:00;;;;;;;4.30;3.80;;;;;;;-0.03;97.71;98210.66;131102;1295;24284;-81
2023/11/25 02:38:01;;;;;;;4.90;3.80;;;;;;;-0.03;97.57;98219.85;131073;1292;25435;-80
2023/11/25 02:41:01;;;;;;;7.10;4.60;;;;;;;-0.02;97.63;98223.80;130951;1297;22562;-80
2023/11/25 02:44:02;;;;;;;;;;;;;;;-0.03;97.57;98233.82;130909;1300;24248;-80
2023/11/25 02:47:04;;;;;;;8.50;4.50;;;;;;;-0.06;97.27;98235.67;130945;1292;22598;-81
2023/11/25 02:50:07;;;;;;;5.00;3.90;;;;;;;-0.11;96.90;98237.48;130919;1296;23329;-81
2023/11/25 02:53:09;;;;;;;7.90;4.10;;;;;;;-0.14;96.53;98244.06;131069;1300;22547;-82
2023/11/25 02:56:09;;;;;;;6.90;4.50;;;;;;;-0.17;96.32;98248.00;131143;1294;23216;-80
2023/11/25 02:59:11;;;;;;;7.20;4.80;;;;;;;-0.18;96.08;98256.58;131108;1299;22585;-80
2023/11/25 03:02:13;;;;;;;8.10;4.30;;;;;;;-0.19;96.05;98269.60;131114;1291;22572;-81
2023/11/25 03:05:14;;;;;;;5.00;4.00;;;;;;;-0.20;95.86;98278.91;131102;1298;23382;-80
2023/11/25 03:08:17;;;;;;;6.60;4.00;;;;;;;-0.23;95.83;98282.79;131183;1301;22597;-78
2023/11/25 03:11:20;;;;;;;7.10;4.10;;;;;;;-0.27;95.89;98288.37;131276;1298;22607;-81
2023/11/25 03:14:22;;;;;;;5.10;3.80;;;;;;;-0.29;95.83;98296.36;131006;1297;25299;-79
2023/11/25 03:17:22;;;;;;;7.90;4.70;;;;;;;-0.29;95.81;98298.66;131135;1299;25540;-81
2023/11/25 03:20:23;;;;;;;7.50;4.70;;;;;;;-0.28;95.82;98305.67;131087;1298;22702;-81
2023/11/25 03:23:23;;;;;;;7.50;5.00;;;;;;;-0.27;95.90;98308.70;131242;1298;22572;-81
2023/11/25 03:26:24;;;;;;;6.30;4.80;;;;;;;-0.25;95.95;98317.79;131159;1298;22552;-81
2023/11/25 03:29:26;;;;;;;7.40;4.60;;;;;;;-0.24;96.25;98322.20;131182;1294;22723;-81
2023/11/25 03:32:27;;;;;;;8.20;4.10;;;;;;;-0.25;96.17;98319.95;131240;1299;24283;-80
2023/11/25 03:35:27;;;;;;;;;;;;;;;-0.25;96.13;98330.27;131249;1285;22571;-79
2023/11/25 03:38:28;;;;;;;6.40;4.60;;;;;;;-0.25;95.98;98338.25;131154;1301;25397;-82
2023/11/25 03:41:30;;;;;;;5.40;4.20;;;;;;;-0.25;96.18;98338.25;131328;1298;22562;-80
2023/11/25 03:44:31;;;;;;;7.80;4.10;;;;;;;-0.26;95.98;98346.96;131093;1298;22580;-81
2023/11/25 03:47:32;;;;;;;4.70;4.20;;;;;;;-0.26;96.05;98348.59;131393;1298;22725;-80
2023/11/25 03:50:32;;;;;;;5.90;3.90;;;;;;;-0.26;95.99;98356.08;131174;1292;22606;-79
2023/11/25 03:53:33;;;;;;;4.60;4.10;;;;;;;-0.27;95.86;98362.40;131151;1301;22674;-81
2023/11/25 03:56:33;;;;;;;5.00;3.80;;;;;;;-0.29;95.72;98360.98;131148;1297;25348;-81
2023/11/25 03:59:34;;;;;;;4.80;3.30;;;;;;;-0.29;95.77;98364.18;131237;1301;22559;-79
2023/11/25 04:02:34;;;;;;;6.20;3.80;;;;;;;-0.29;95.61;98365.23;130951;1301;22569;-81
2023/11/25 04:05:35;;;;;;;4.70;4.00;;;;;;;-0.30;95.60;98365.94;131143;1294;22599;-80
2023/11/25 04:08:35;;;;;;;4.20;3.50;;;;;;;-0.31;95.58;98373.33;131174;1292;27092;-80
2023/11/25 04:11:36;;;;;;;6.90;3.60;;;;;;;-0.30;95.70;98372.61;131204;1298;22583;-82
2023/11/25 04:14:36;;;;;;;7.70;4.60;;;;;;;-0.31;95.90;98375.41;131243;1291;23490;-79
2023/11/25 04:17:38;;;;;;;8.10;4.00;;;;;;;-0.30;95.77;98376.61;131243;1295;24256;-80
2023/11/25 04:20:38;;;;;;;7.10;4.30;;;;;;;-0.30;95.73;98377.66;131278;1289;22573;-81
2023/11/25 04:23:39;;;;;;;7.30;4.40;;;;;;;-0.32;96.00;98377.83;131299;1292;23023;-82
2023/11/25 04:26:40;;;;;;;8.70;4.30;;;;;;;-0.34;95.80;98381.10;131268;1289;22573;-81
2023/11/25 04:29:42;;;;;;;5.10;4.20;;;;;;;-0.34;95.86;98388.11;131166;1298;23339;-80
2023/11/25 04:32:44;;;;;;;8.40;4.50;;;;;;;-0.38;95.76;98387.59;131167;1301;22662;-83
2023/11/25 04:35:45;;;;;;;8.80;4.60;;;;;;;-0.42;95.76;98396.66;131248;1297;22562;-81
2023/11/25 04:38:46;;;;;;;5.70;4.40;;;;;;;-0.47;95.59;98405.39;131165;1292;22718;-79
2023/11/25 04:41:47;;;;;;;6.80;4.70;;;;;;;-0.49;95.87;98407.31;131100;1298;22644;-80
2023/11/25 04:44:48;;;;;;;9.30;4.70;;;;;;;-0.52;95.84;98414.83;130912;1301;22591;-79
2023/11/25 04:47:55;;;;;;;5.70;4.40;;;;;;;-0.52;95.80;98420.41;131138;1289;22591;-80
2023/11/25 04:50:56;;;;;;;6.30;4.10;;;;;;;-0.51;95.79;98423.82;131119;1295;22594;-80
2023/11/25 04:53:57;;;;;;;4.70;3.50;;;;;;;-0.49;95.83;98426.77;131196;1301;23855;-80
2023/11/25 04:56:58;;;;;;;7.20;4.50;;;;;;;-0.46;95.95;98435.02;131231;1298;24375;-80
2023/11/25 04:59:58;;;;;;;13.20;4.40;;;;;;;-0.43;96.02;98441.40;131120;1299;25432;-81
2023/11/25 05:02:59;;;;;;;9.70;4.10;;;;;;;-0.41;96.16;98438.73;131352;1298;22682;-80
2023/11/25 05:06:02;;;;;;;7.20;4.80;;;;;;;-0.39;96.02;98443.32;131377;1295;22708;-81
2023/11/25 05:09:04;;;;;;;7.50;4.10;;;;;;;-0.37;96.12;98444.46;131245;1292;24290;-81
2023/11/25 05:12:06;;;;;;;7.00;3.80;;;;;;;-0.35;95.83;98450.87;131299;1298;22588;-81
2023/11/25 05:15:09;;;;;;;4.80;4.00;;;;;;;-0.31;95.70;98456.81;131182;1301;24397;-81
2023/11/25 05:18:09;;;;;;;5.90;4.40;;;;;;;-0.29;95.75;98464.11;131183;1294;22598;-80
2023/11/25 05:21:10;;;;;;;8.00;5.00;;;;;;;-0.29;95.52;98464.73;130924;1297;23595;-80
2023/11/25 05:24:11;;;;;;;6.70;4.50;;;;;;;-0.27;95.88;98471.94;131114;1297;22609;-81
2023/11/25 05:27:12;;;;;;;5.80;4.40;;;;;;;-0.26;96.03;98478.73;131057;1301;22583;-81
2023/11/25 05:30:13;;;;;;;;;;;;;;;-0.24;95.77;98479.96;131201;1295;23286;-79
2023/11/25 05:33:13;;;;;;;8.30;4.70;;;;;;;-0.23;95.93;98486.98;131223;1298;25514;-80
2023/11/25 05:36:14;;;;;;;6.80;4.60;;;;;;;-0.21;95.63;98486.50;131294;1299;22592;-81
2023/11/25 05:39:14;;;;;;;5.70;5.00;;;;;;;-0.21;95.89;98484.15;131159;1298;23477;-81
2023/11/25 05:42:18;;;;;;;5.60;4.80;;;;;;;-0.19;95.77;98483.16;131011;1300;22602;-79
2023/11/25 05:45:23;;;;;;;5.90;4.70;;;;;;;-0.20;96.12;98483.26;131089;1299;22567;-79
2023/11/25 05:48:25;;;;;;;7.10;4.70;;;;;;;-0.24;96.16;98488.83;131093;1297;22591;-80
2023/11/25 05:51:33;;;;;;;9.50;5.80;;;;;;;-0.29;96.30;98491.91;131150;1294;23034;-79
2023/11/25 05:54:34;;;;;;;7.90;4.40;;;;;;;-0.33;96.48;98494.81;131176;1291;23463;-80
2023/11/25 05:57:35;;;;;;;10.90;5.60;;;;;;;-0.34;96.19;98499.14;131143;1292;22556;-82
2023/11/25 06:00:36;;;;;;;7.80;4.80;;;;;;;-0.35;96.42;98513.83;131216;1301;22557;-80
2023/11/25 06:03:42;;;;;;;10.20;5.10;;;;;;;-0.35;96.19;98521.23;131207;1294;23071;-81
2023/11/25 06:06:42;;;;;;;8.00;4.60;;;;;;;-0.33;96.20;98533.77;131254;1298;25377;-80
2023/11/25 06:09:43;;;;;;;9.90;4.10;;;;;;;-0.32;96.25;98532.27;131290;1299;22558;-80
2023/11/25 06:12:43;;;;;;;6.40;3.60;;;;;;;-0.30;96.09;98538.21;131049;1301;22598;-79
2023/11/25 06:15:44;;;;;;;5.00;2.90;;;;;;;-0.29;95.92;98543.98;131249;1288;22567;-80
2023/11/25 06:18:44;;;;;;;6.20;3.40;;;;;;;-0.29;95.46;98548.66;131465;1289;22839;-80
2023/11/25 06:21:48;;;;;;;8.30;4.20;;;;;;;-0.28;95.65;98549.15;131434;1299;22622;-81
2023/11/25 06:24:48;;;;;;;8.10;3.10;;;;;;;-0.28;95.50;98557.27;131186;1298;22566;-79
2023/11/25 06:27:49;;;;;;;6.60;3.00;;;;;;;-0.28;95.29;98562.70;131129;1298;22665;-79
2023/11/25 06:30:54;;;;;;;4.50;2.70;;;;;;;-0.28;95.16;98566.66;131181;1298;22614;-80
2023/11/25 06:33:57;;;;;;;5.90;3.20;;;;;;;-0.27;95.26;98571.61;131072;1294;24327;-81
2023/11/25 06:36:58;;;;;;;5.50;3.40;;;;;;;-0.27;94.96;98574.22;131296;1301;23167;-80
2023/11/25 06:39:58;;;;;;;4.50;2.60;;;;;;;-0.26;95.03;98580.72;131255;1298;22633;-80
2023/11/25 06:43:00;;;;;;;4.90;3.50;;;;;;;-0.24;95.14;98585.09;131189;1299;23455;-81
2023/11/25 06:46:01;;;;;;;5.90;3.00;;;;;;;-0.22;95.15;98589.27;131171;1295;24180;-81
2023/11/25 06:49:01;;;;;;;3.60;2.90;;;;;;;-0.20;95.07;98599.83;131145;1298;22695;-80
2023/11/25 06:52:03;;;;;;;6.40;3.10;;;;;;;-0.20;94.89;98602.82;131218;1300;25466;-80
2023/11/25 06:55:05;;;;;;;2.80;2.50;;;;;;;-0.21;94.95;98612.34;131279;1298;22567;-79
2023/11/25 06:58:05;;;;;;;3.60;2.60;;;;;;;-0.23;94.83;98614.73;131327;1288;26679;-82
2023/11/25 07:01:06;;;;;;;2.70;2.20;;;;;;;-0.24;94.84;98618.95;131505;1295;23399;-81
2023/11/25 07:04:07;;;;;;;2.90;2.60;;;;;;;-0.26;95.07;98628.52;131274;1298;24023;-80
2023/11/25 07:07:07;;;;;;;3.90;2.80;;;;;;;-0.28;95.45;98634.81;131446;1301;22564;-82
2023/11/25 07:10:13;;;;;;;5.00;3.30;;;;;;;-0.29;95.32;98644.64;131456;1295;22598;-79
2023/11/25 07:13:14;;;;;;;12.00;6.20;;;;;;;-0.29;95.50;98646.52;131743;1295;22668;-81
2023/11/25 07:16:16;;;;;;;4.90;3.30;;;;;;;-0.30;95.52;98645.05;131293;1299;22623;-80
2023/11/25 07:19:17;;;;;;;4.30;2.90;;;;;;;-0.31;95.12;98648.99;131784;1295;24208;-80
2023/11/25 07:22:17;;;;;;;6.30;3.10;;;;;;;-0.33;95.10;98653.84;131504;1295;24274;-80
2023/11/25 07:25:18;;;;;;;4.60;2.90;;;;;;;-0.34;95.23;98652.19;131329;1299;24297;-80
2023/11/25 07:28:19;;;;;;;;;;;;;;;-0.35;94.98;98653.36;131600;1295;22628;-80
2023/11/25 07:31:21;;;;;;;5.00;3.20;;;;;;;-0.37;95.18;98664.41;131549;1298;22598;-80
2023/11/25 07:34:22;;;;;;;4.90;2.60;;;;;;;-0.37;95.14;98668.24;131260;1299;22601;-80
2023/11/25 07:37:22;;;;;;;3.60;2.90;;;;;;;-0.37;95.23;98670.84;131515;1295;22565;-79
2023/11/25 07:40:24;;;;;;;4.90;3.30;;;;;;;-0.34;95.20;98671.64;131355;1299;22608;-80
2023/11/25 07:43:28;;;;;;;6.20;4.10;;;;;;;-0.33;95.16;98672.41;131091;1295;23000;-86
2023/11/25 07:46:29;;;;;;;3.10;2.80;;;;;;;-0.32;95.14;98679.45;130752;1298;25137;-80
2023/11/25 07:49:29;;;;;;;3.70;2.80;;;;;;;-0.31;95.00;98678.71;131266;1299;23514;-80
2023/11/25 07:52:30;;;;;;;9.90;3.60;;;;;;;-0.31;95.13;98684.23;131435;1295;22610;-80
2023/11/25 07:55:31;;;;;;;6.10;2.80;;;;;;;-0.26;95.42;98684.83;131377;1295;25413;-80
2023/11/25 07:58:31;;;;;;;4.40;3.30;;;;;;;-0.18;95.37;98682.96;131448;1297;25461;-80
2023/11/25 08:01:32;;;;;;;4.30;3.00;;;;;;;-0.12;95.54;98681.67;131319;1299;22601;-80
2023/11/25 08:04:32;;;;;;;8.20;4.00;;;;;;;-0.07;95.32;98681.80;131470;1292;22559;-79
2023/11/25 08:07:33;;;;;;;5.50;3.60;;;;;;;-0.02;95.30;98682.61;131430;1298;22722;-79
2023/11/25 08:10:34;;;;;;;4.90;3.50;;;;;;;0.03;95.45;98683.92;131512;1292;22582;-79
2023/11/25 08:13:35;;;;;;;;;;;;;;;0.06;95.18;98686.81;131455;1298;23543;-79
2023/11/25 08:16:35;;;;;;;7.90;3.80;;;;;;;0.09;95.20;98687.73;131339;1298;22629;-80
2023/11/25 08:19:36;;;;;;;4.10;3.60;;;;;;;0.09;95.12;98685.27;131169;1301;22671;-80
2023/11/25 08:22:38;;;;;;;4.50;3.30;;;;;;;0.07;94.78;98688.77;131159;1299;24301;-83
2023/11/25 08:25:38;;;;;;;7.30;3.70;;;;;;;0.03;94.82;98693.27;130964;1301;24284;-79
2023/11/25 08:28:39;;;;;;;7.30;3.40;;;;;;;-0.00;94.86;98695.13;130992;1293;23196;-79
2023/11/25 08:31:39;;;;;;;6.60;3.70;;;;;;;-0.03;94.82;98700.20;131256;1301;24320;-81
2023/11/25 08:34:40;;;;;;;5.80;3.60;;;;;;;-0.02;94.86;98701.19;131123;1293;23355;-79
2023/11/25 08:37:40;;;;;;;6.20;4.30;;;;;;;-0.02;94.84;98702.38;131055;1285;22564;-79
2023/11/25 08:40:41;;;;;;;7.00;4.20;;;;;;;0.03;95.05;98707.56;131337;1295;22696;-79
2023/11/25 08:43:44;;;;;;;6.30;4.20;;;;;;;0.05;95.16;98713.45;131211;1291;22631;-79
2023/11/25 08:46:44;;;;;;;7.10;3.90;;;;;;;0.07;95.20;98707.49;131239;1298;24262;-80
2023/11/25 08:49:51;;;;;;;7.20;3.70;;;;;;;0.07;94.75;98710.87;131303;1298;23015;-80
2023/11/25 08:52:51;;;;;;;7.80;3.50;;;;;;;0.07;94.48;98710.66;131371;1292;22582;-79
2023/11/25 08:55:52;;;;;;;5.40;3.20;;;;;;;0.10;94.27;98712.31;131454;1298;22662;-79
2023/11/25 08:58:55;;;;;;;5.20;3.40;;;;;;;0.15;94.39;98714.33;131536;1301;22606;-80
2023/11/25 09:01:57;;;;;;;6.20;3.30;;;;;;;0.25;94.47;98720.92;131659;1298;25437;-80
2023/11/25 09:04:58;;;;;;;3.90;3.30;;;;;;;0.33;94.27;98716.04;131397;1300;22559;-79
2023/11/25 09:08:00;;;;;;;5.40;3.00;;;;;;;0.33;93.27;98719.99;131465;1298;22685;-79
2023/11/25 09:11:01;;;;;;;6.00;3.30;;;;;;;0.34;93.53;98717.48;131370;1298;22594;-80
2023/11/25 09:14:04;;;;;;;6.00;3.80;;;;;;;0.35;93.43;98719.87;131396;1294;22595;-80
2023/11/25 09:17:05;;;;;;;8.50;3.80;;;;;;;0.32;92.88;98719.95;131294;1299;22595;-80
2023/11/25 09:20:11;;;;;;;5.50;3.80;;;;;;;0.31;93.05;98721.40;131160;1299;22570;-79
2023/11/25 09:23:13;;;;;;;7.70;4.00;;;;;;;0.30;93.04;98722.16;131269;1301;24255;-80
2023/11/25 09:26:14;;;;;;;5.00;3.00;;;;;;;0.30;92.91;98720.44;131391;1292;24326;-80
2023/11/25 09:29:15;;;;;;;;;;;;;;;0.29;92.90;98722.66;131409;1292;22559;-80
2023/11/25 09:32:15;;;;;;;5.30;3.60;;;;;;;0.29;92.88;98726.64;131357;1301;22752;-79
2023/11/25 09:35:16;;;;;;;5.90;3.40;;;;;;;0.30;93.03;98721.84;130945;1295;22563;-79
2023/11/25 09:38:17;;;;;;;5.40;3.30;;;;;;;0.30;93.00;98725.98;131384;1294;25434;-79
2023/11/25 09:41:17;;;;;;;4.60;3.30;;;;;;;0.33;93.19;98728.73;131152;1293;22758;-80
2023/11/25 09:44:19;;;;;;;5.00;3.20;;;;;;;0.37;93.15;98729.70;131223;1291;22559;-81
2023/11/25 09:47:20;;;;;;;5.40;3.30;;;;;;;0.44;93.39;98731.02;131442;1297;22572;-84
2023/11/25 09:50:21;;;;;;;5.70;3.00;;;;;;;0.50;93.29;98729.30;131523;1291;24357;-85
2023/11/25 09:53:29;;;;;;;4.90;3.30;;;;;;;0.52;92.84;98730.57;131267;1292;22570;-81
2023/11/25 09:56:30;;;;;;;5.90;3.40;;;;;;;0.57;93.13;98731.30;131149;1293;22594;-81
2023/11/25 09:59:31;;;;;;;4.60;3.10;;;;;;;0.67;93.27;98727.46;131208;1291;22586;-80
2023/11/25 10:02:32;;;;;;;5.20;3.00;;;;;;;0.72;92.82;98731.17;131293;1302;22592;-80
2023/11/25 10:05:33;;;;;;;5.70;3.00;;;;;;;0.74;92.81;98736.18;131109;1300;26564;-81
2023/11/25 10:08:35;;;;;;;5.20;2.70;;;;;;;0.78;92.74;98735.51;131169;1300;22682;-81
2023/11/25 10:11:37;;;;;;;6.50;3.40;;;;;;;0.78;92.29;98735.16;131014;1297;22583;-80
2023/11/25 10:14:43;;;;;;;6.60;3.50;;;;;;;0.78;92.18;98738.98;131264;1291;22575;-80
2023/11/25 10:17:44;;;;;;;7.80;3.70;;;;;;;0.80;92.28;98739.98;131198;1301;23160;-79
2023/11/25 10:20:47;;;;;;;4.20;3.00;;;;;;;0.84;92.44;98747.80;130948;1301;22620;-81
2023/11/25 10:23:50;;;;;;;6.20;3.40;;;;;;;0.86;92.15;98752.92;131159;1298;22568;-80
2023/11/25 10:26:52;;;;;;;6.70;2.90;;;;;;;0.85;92.15;98753.15;130938;1299;24369;-80
2023/11/25 10:29:53;;;;;;;10.40;3.00;;;;;;;0.84;91.65;98750.24;131184;1299;22598;-81
2023/11/25 10:32:56;;;;;;;4.60;3.10;;;;;;;0.81;91.50;98753.45;131011;1298;23044;-81
2023/11/25 10:35:58;;;;;;;6.90;3.20;;;;;;;0.82;91.78;98754.45;131132;1300;22615;-81
2023/11/25 10:39:02;;;;;;;6.30;3.00;;;;;;;0.82;91.74;98752.70;131098;1291;24952;-80
2023/11/25 10:42:07;;;;;;;4.50;3.00;;;;;;;0.84;91.87;98757.23;131266;1294;22734;-82
2023/11/25 10:45:34;;;;;;;6.70;3.00;;;;;;;0.85;91.84;98758.05;131340;1301;25339;-82
2023/11/25 10:48:41;;;;;;;5.70;3.30;;;;;;;0.85;91.50;98766.16;131196;1298;22698;-80
2023/11/25 10:51:57;;;;;;;7.90;3.80;;;;;;;0.82;91.30;98766.66;130892;1282;22602;-81
2023/11/25 10:55:11;;;;;;;11.70;4.80;;;;;;;0.81;91.38;98775.97;130926;1295;23260;-81
2023/11/25 10:58:23;;;;;;;;;;;;;;;;;;;;;
2023/11/25 11:01:30;;;;;;;7.50;3.50;;;;;;;0.82;91.24;98773.20;130948;1298;22675;-82
2023/11/25 11:04:57;;;;;;;6.70;3.30;;;;;;;0.84;91.41;98777.38;131787;1299;22609;-83
2023/11/25 11:08:09;;;;;;;8.50;4.00;;;;;;;0.88;91.31;98783.88;131037;1301;22567;-82
2023/11/25 11:11:23;;;;;;;7.30;3.40;;;;;;;0.87;90.63;98785.68;131161;1299;22655;-82
2023/11/25 11:14:54;;;;;;;5.90;3.30;;;;;;;0.84;90.66;98783.48;131208;1291;22556;-81
2023/11/25 11:18:18;;;;;;;5.90;3.00;;;;;;;0.79;90.44;98775.92;131211;1294;25569;-82
2023/11/25 11:21:26;;;;;;;7.60;3.30;;;;;;;0.77;90.14;98781.34;131013;1298;24253;-83
2023/11/25 11:25:07;;;;;;;8.90;4.20;;;;;;;0.75;90.19;98788.52;130940;1301;22552;-82
2023/11/25 11:28:33;;;;;;;12.00;5.70;;;;;;;0.78;90.41;98790.84;131139;1299;22550;-83
2023/11/25 11:33:04;;;;;;;18.20;6.70;;;;;;;0.78;90.45;98785.29;131438;1298;22670;-80
2023/11/25 11:37:09;;;;;;;;;;;;;;;;;;;;;
2023/11/25 11:41:20;;;;;;;;;;;;;;;;;;;;;
2023/11/25 11:48:47;;;;;;;8.10;4.00;;;;;;;1.01;90.64;98770.67;128968;1317;22607;-85
2023/11/25 11:52:47;;;;;;;10.30;4.50;;;;;;;1.17;90.62;98773.26;129968;1311;22646;-85
2023/11/25 12:09:50;;;;;;;8.80;3.50;;;;;;;0.96;90.54;98770.41;128252;1325;22707;-81
2023/11/25 12:14:22;;;;;;;5.40;3.00;;;;;;;0.95;90.91;98772.64;128866;1308;24444;-85
2023/11/25 12:18:16;;;;;;;;;;;;;;;;;;;;;
2023/11/25 12:21:50;;;;;;;;;;;;;;;;;;;;;
2023/11/25 12:28:25;;;;;;;;;;;;;;;1.33;92.06;98780.34;130340;1298;25370;-81
2023/11/25 12:31:28;;;;;;;7.70;3.50;;;;;;;1.42;92.24;98777.40;130571;1300;22577;-79
2023/11/25 12:34:32;;;;;;;12.10;4.80;;;;;;;1.52;92.15;98777.05;130436;1297;22956;-81
2023/11/25 12:37:43;;;;;;;11.80;4.70;;;;;;;1.63;91.98;98774.08;130653;1301;22783;-81
2023/11/25 12:40:47;;;;;;;11.40;4.10;;;;;;;1.82;91.75;98773.14;130760;1301;25412;-79
2023/11/25 12:44:29;;;;;;;5.00;2.70;;;;;;;1.99;90.95;98769.81;130885;1294;23834;-82
2023/11/25 12:47:51;;;;;;;8.10;4.40;;;;;;;2.12;90.09;98767.42;131010;1298;22630;-80
2023/11/25 12:51:06;;;;;;;5.30;3.30;;;;;;;2.16;88.63;98765.96;131008;1303;22627;-80
2023/11/25 12:54:09;;;;;;;6.50;3.40;;;;;;;2.11;88.18;98761.20;131293;1294;23684;-82
2023/11/25 12:57:10;;;;;;;7.70;3.10;;;;;;;2.06;88.28;98751.56;131002;1296;22578;-79
2023/11/25 13:00:15;;;;;;;7.20;3.60;;;;;;;1.96;87.64;98750.27;130816;1297;22584;-82
2023/11/25 13:03:33;;;;;;;8.50;5.00;;;;;;;1.81;87.70;98751.13;131398;1300;23306;-80
2023/11/25 13:07:02;;;;;;;;;;;;;;;;;;;;;
2023/11/25 13:10:07;;;;;;;4.60;2.90;;;;;;;1.61;88.14;98753.50;131112;1301;22574;-80
2023/11/25 13:13:47;;;;;;;4.40;2.90;;;;;;;1.49;87.65;98747.46;131098;1297;24322;-83
2023/11/25 13:17:38;;;;;;;;;;;;;;;;;;;;;
2023/11/25 13:21:19;;;;;;;;;;;;;;;;;;;;;
2023/11/25 13:25:01;;;;;;;6.70;3.30;;;;;;;1.16;88.50;98752.77;131619;1297;22544;-81
2023/11/25 13:28:23;;;;;;;10.70;4.70;;;;;;;1.05;89.00;98755.37;131494;1293;24316;-81
2023/11/25 13:31:23;;;;;;;8.70;5.00;;;;;;;1.03;89.29;98758.80;131160;1290;22559;-83
2023/11/25 13:34:24;;;;;;;7.60;3.70;;;;;;;1.03;89.39;98757.60;131530;1297;22572;-82
2023/11/25 13:37:24;;;;;;;9.40;4.10;;;;;;;1.02;89.05;98757.41;130957;1297;24269;-82
2023/11/25 13:40:33;;;;;;;8.40;3.70;;;;;;;1.02;89.22;98760.35;131452;1294;22652;-81
2023/11/25 13:43:34;;;;;;;10.40;4.80;;;;;;;0.99;89.33;98766.48;131266;1290;22557;-81
2023/11/25 13:46:37;;;;;;;8.80;3.60;;;;;;;0.95;89.34;98765.55;131424;1292;26543;-80
2023/11/25 13:49:38;;;;;;;5.80;3.60;;;;;;;0.88;89.04;98764.20;131209;1291;22652;-81
2023/11/25 13:52:38;;;;;;;10.20;3.20;;;;;;;0.82;88.89;98761.02;131352;1295;22559;-80
2023/11/25 13:55:44;;;;;;;6.00;3.50;;;;;;;0.77;88.87;98765.20;131012;1288;23032;-79
2023/11/25 13:58:45;;;;;;;6.90;3.50;;;;;;;0.72;88.98;98763.73;131328;1292;22815;-81
2023/11/25 14:01:46;;;;;;;7.70;4.30;;;;;;;0.67;88.92;98777.73;131110;1291;22595;-81
2023/11/25 14:04:47;;;;;;;;;;;;;;;0.65;89.10;98782.77;131210;1294;23306;-83
2023/11/25 14:07:48;;;;;;;10.00;3.90;;;;;;;0.64;89.28;98783.94;131141;1291;22595;-81
2023/11/25 14:10:49;;;;;;;16.90;4.90;;;;;;;0.63;89.36;98786.97;131345;1297;22981;-83
2023/11/25 14:13:51;;;;;;;6.00;3.70;;;;;;;0.62;89.36;98787.55;131062;1298;24267;-80
2023/11/25 14:16:52;;;;;;;7.70;3.00;;;;;;;0.61;89.26;98789.27;130846;1298;642583;-81
2023/11/25 14:19:52;;;;;;;5.20;3.20;;;;;;;0.57;89.03;98786.98;131120;1298;22684;-80
2023/11/25 14:22:53;;;;;;;5.90;4.10;;;;;;;0.55;89.14;98788.92;131278;1291;22599;-82
2023/11/25 14:25:54;;;;;;;9.70;5.00;;;;;;;0.52;89.02;98786.91;131309;1292;25440;-81
2023/11/25 14:28:54;;;;;;;11.30;5.10;;;;;;;0.52;89.12;98788.35;131284;1298;22566;-81
2023/11/25 14:31:55;;;;;;;10.20;5.50;;;;;;;0.51;89.26;98791.17;131417;1298;22556;-80
2023/11/25 14:34:56;;;;;;;11.80;5.90;;;;;;;0.50;89.40;98790.07;131285;1294;24333;-82
2023/11/25 14:37:59;;;;;;;17.80;5.80;;;;;;;0.50;89.49;98789.71;131573;1294;23306;-82
2023/11/25 14:41:00;;;;;;;19.70;9.00;;;;;;;0.50;89.49;98791.24;131458;1295;22972;-81
2023/11/25 14:44:00;;;;;;;17.80;8.70;;;;;;;0.50;89.70;98794.94;131569;1291;24331;-80
2023/11/25 14:47:01;;;;;;;17.00;7.30;;;;;;;0.50;89.91;98794.38;131329;1298;23396;-81
2023/11/25 14:50:03;;;;;;;8.80;4.90;;;;;;;0.50;89.73;98789.74;131360;1301;22741;-82
2023/11/25 14:53:03;;;;;;;17.50;7.50;;;;;;;0.49;89.69;98788.79;131415;1295;22595;-81
2023/11/25 14:56:07;;;;;;;13.20;6.30;;;;;;;0.45;89.60;98791.17;131389;1295;22839;-80
2023/11/25 14:59:08;;;;;;;9.60;5.30;;;;;;;0.42;89.67;98788.64;131300;1294;23976;-80
2023/11/25 15:02:09;;;;;;;;;;;;;;;0.37;89.58;98787.33;131519;1289;22560;-83